MDT,Max TemperatureF,Mean TemperatureF,Min TemperatureF,Max Dew PointF,MeanDew PointF,Min DewpointF,Max Humidity, Mean Humidity, Min Humidity, Max Sea Level PressureIn, Mean Sea Level PressureIn, Min Sea Level PressureIn, Max VisibilityMiles, Mean VisibilityMiles, Min VisibilityMiles, Max Wind SpeedMPH, Mean Wind SpeedMPH, Max Gust SpeedMPH,PrecipitationIn, CloudCover, Events, WindDirDegrees
2012-10-1,76,59,42,48,42,38,83,55,27,30.12,30.05,29.92,10,10,10,29,13,37,0.00,2,,359
2012-10-2,83,61,38,44,38,31,93,54,15,30.08,29.91,29.75,10,10,10,20,5,25,0.00,0,,194
2012-10-3,90,66,41,44,36,22,89,49,8,30.06,29.78,29.65,10,10,6,40,10,52,0.00,0,,305
2012-10-4,59,48,36,34,28,26,75,53,30,30.31,30.23,30.14,10,10,10,20,9,26,0.00,0,,42
2012-10-5,46,41,35,34,31,30,85,69,53,30.32,30.23,30.12,10,10,9,21,11,24,0.00,6,,90
2012-10-6,42,39,36,38,36,34,100,93,85,30.31,30.27,30.24,10,6,1,13,9,15,0.04,8,,115
2012-10-7,56,44,31,36,34,29,92,67,41,30.28,30.17,30.03,10,10,10,15,5,18,0.00,5,,168
2012-10-8,73,50,26,35,29,24,100,59,18,30.06,29.91,29.76,10,10,10,14,5,17,0.00,0,,221
2012-10-9,62,48,34,39,32,18,85,60,34,30.20,29.98,29.74,10,10,10,23,9,30,0.00,0,,6
2012-10-10,74,51,28,38,34,28,100,63,25,30.24,30.06,29.88,10,10,8,24,10,31,0.00,0,,171
2012-10-11,83,61,38,38,36,33,86,53,20,30.18,29.96,29.86,10,10,10,26,12,32,0.00,0,,5
2012-10-12,72,57,42,55,41,29,100,70,39,30.24,30.02,29.82,10,9,2,26,10,35,0.28,5,Rain,128
2012-10-13,70,57,44,52,43,38,93,65,37,29.92,29.79,29.68,10,10,10,30,12,38,0.04,2,Rain,275
2012-10-14,73,60,46,43,40,35,80,53,25,30.20,30.09,29.93,10,10,10,20,7,31,0.00,0,,277
2012-10-15,81,60,38,43,39,33,92,55,18,30.05,29.89,29.73,10,10,10,17,6,21,0.00,0,,275
2012-10-16,80,61,42,41,36,30,89,53,16,29.80,29.60,29.38,10,10,10,24,10,35,0.00,0,,205
2012-10-17,65,48,31,42,25,7,69,40,10,29.93,29.71,29.46,10,10,9,31,11,38,T,1,,355
2012-10-18,63,45,26,23,19,15,81,49,16,30.11,30.05,29.96,10,10,10,14,6,21,0.00,0,,254
2012-10-19,76,52,27,31,24,19,81,47,13,30.09,29.92,29.74,10,10,9,10,5,15,0.00,0,,184
2012-10-20,85,60,34,30,25,18,75,42,8,29.80,29.68,29.56,10,10,10,21,9,26,0.00,0,,208
2012-10-21,85,61,37,33,27,20,59,35,10,29.72,29.64,29.56,10,10,10,17,8,22,0.00,0,,5
2012-10-22,73,54,35,46,40,33,93,62,31,29.87,29.76,29.67,10,10,6,16,6,21,0.00,0,,89
2012-10-23,89,62,34,44,30,12,100,53,6,29.72,29.66,29.57,10,7,0,24,8,32,0.00,1,Fog,248
2012-10-24,63,53,43,45,41,22,89,63,37,29.88,29.73,29.55,10,10,7,35,12,44,T,4,,34
2012-10-25,49,42,35,37,25,20,89,62,34,30.30,30.15,29.85,10,10,9,32,12,40,T,6,,31
2012-10-26,39,32,25,30,29,24,100,80,59,30.52,30.40,30.30,10,5,1,12,6,20,0.07,6,Snow,99
2012-10-27,47,35,23,32,27,23,100,77,53,30.32,30.20,30.12,10,7,1,17,5,21,0.00,4,,252
2012-10-28,60,40,19,34,27,18,96,63,29,30.23,30.12,30.00,10,9,5,9,2,13,0.00,0,,210
2012-10-29,73,50,27,30,28,24,92,55,17,30.15,30.06,29.99,10,10,10,15,7,18,0.00,0,,229
2012-10-30,78,55,32,32,29,26,78,48,18,30.10,30.02,29.95,10,10,10,17,6,21,0.00,0,,270
2012-10-31,79,56,33,31,28,24,76,45,13,30.10,30.03,29.95,10,10,10,14,6,16,0.00,0,,241